Star Flyer — 9HA2512 — position and weather

sailwx.info

Track history (hours):
 
Tides and Currents Weather Stations Pressure Air Temp Water Temp Dewpoint Dewpoint Depression Visibility Wind Speed Wind Dir Waves Ship Positions

Star Flyer

Last reported at 2018-Dec-09 22:04 UTC. Time now 2018-Dec-11 00:48 UTC.
Position N 09°30' W 079°50'.

Length 112 m; draft 5.5 m.

Type: Ship. MMSI: 248785000.

Date/timePositionNaut miles runAvg speedWind from/ knotsBaromVisibWave heightAir tempDewpointWater temp
2018-Dec-09 22:04N 09°30' W 079°50'2 7.3
2018-Dec-09 21:46N 09°28' W 079°51'2 6.9
2018-Dec-09 21:30N 09°27' W 079°52'4 7.4
2018-Dec-09 21:00N 09°24' W 079°54'4 7.8
2018-Dec-09 20:31N 09°20' W 079°55'4 7.2
2018-Dec-09 20:00N 09°17' W 079°55'0 0.5
2018-Dec-09 19:30N 09°16' W 079°55'0 0.5
2018-Dec-09 19:00N 09°16' W 079°55'2 3.1
2018-Dec-09 18:30N 09°15' W 079°55'4 7.0
2018-Dec-09 18:00N 09°12' W 079°54'5 0.1
2018-Dec-07 16:28N 09°16' W 079°55'0 0.3
2018-Dec-07 15:46N 09°16' W 079°55'1 0.7
2018-Dec-07 14:43N 09°17' W 079°55'0 1.9
2018-Dec-07 14:31N 09°18' W 079°55'2 2.9
2018-Dec-07 14:00N 09°19' W 079°55'2 3.8
2018-Dec-07 13:31N 09°21' W 079°55'2 3.4
2018-Dec-07 13:00N 09°23' W 079°55'5 8.8
2018-Dec-07 12:29N 09°27' W 079°55'  
Track history (hours):
 
Tides and Currents Weather Stations Pressure Air Temp Water Temp Dewpoint Dewpoint Depression Visibility Wind Speed Wind Dir Waves Ship Positions

Star Flyer

Last reported at 2018-Dec-09 22:04 UTC. Time now 2018-Dec-11 00:48 UTC.
Position N 09°30' W 079°50'.

Length 112 m; draft 5.5 m.

Type: Ship. MMSI: 248785000.

Date/timePositionNaut miles runAvg speedWind from/ knotsBaromVisibWave heightAir tempDewpointWater temp
2018-Dec-09 22:04N 09°30' W 079°50'2 7.3
2018-Dec-09 21:46N 09°28' W 079°51'2 6.9
2018-Dec-09 21:30N 09°27' W 079°52'4 7.4
2018-Dec-09 21:00N 09°24' W 079°54'4 7.8
2018-Dec-09 20:31N 09°20' W 079°55'4 7.2
2018-Dec-09 20:00N 09°17' W 079°55'0 0.5
2018-Dec-09 19:30N 09°16' W 079°55'0 0.5
2018-Dec-09 19:00N 09°16' W 079°55'2 3.1
2018-Dec-09 18:30N 09°15' W 079°55'4 7.0
2018-Dec-09 18:00N 09°12' W 079°54'5 0.1
2018-Dec-07 16:28N 09°16' W 079°55'0 0.3
2018-Dec-07 15:46N 09°16' W 079°55'1 0.7
2018-Dec-07 14:43N 09°17' W 079°55'0 1.9
2018-Dec-07 14:31N 09°18' W 079°55'2 2.9
2018-Dec-07 14:00N 09°19' W 079°55'2 3.8
2018-Dec-07 13:31N 09°21' W 079°55'2 3.4
2018-Dec-07 13:00N 09°23' W 079°55'5 8.8
2018-Dec-07 12:29N 09°27' W 079°55'  

Dump ship's entire track history